KHEI

Hettinger Municipal Airport

Hettinger, North Dakota, USA
METAR KHEI 110153Z AUTO 30004KT 10SM CLR M06/M09 A2997 RMK AO2 SLP190 T10611094
Observed Flight Rules
Dec-11 @ 01:53 UTC (32 minutes ago) Visual Flight Rules
Wind Visibility Clouds
300° at 4 knots 10 miles
  • Clear skies
Temperatures Readings
Current -6°C / 21°F
Dewpoint -9°C / 16°F
Humidity 80%
Altimeter 29.97" Hg
Pressure 1019 hPa
Elevation 828
METAR KHEI 110153Z AUTO 30004KT 10SM CLR M06/M09 A2997 RMK AO2 SLP190 T10611094
Observed Flight Rules
Dec-11 @ 01:53 UTC
(32 minutes ago)
VFR
Wind Visibility
300° at 4 knots 10 miles
Clouds
  • Clear skies
Temperature Dewpoint
-6°C / 21°F -9°C / 16°F
Humidity Altimeter Pressure
80% 29.97" Hg 1019 hPa